Terminal Aerodrome Forecast
Issued by NWS Lake Charles, LA

Home | Current Version | Previous Version | Text Only | Print | Product List | Glossary On
Versions: 1 2 3 4 5 6 7 8 9 10 11 12 13 14 15 16 17 18
000
FTUS44 KLCH 272340
TAFBPT
TAF
KBPT 272340Z 2800/2824 16011KT P6SM VCSH BKN017 OVC045
      TEMPO 2802/2806 SCT019 BKN022 BKN035
     FM280600 16011KT P6SM BKN019
      TEMPO 2808/2812 5SM BR OVC005
     FM281400 16010KT 5SM BR OVC004=

USA.gov is the U.S. government's official web portal to all federal, state and local government web resources and services.